DLH1985 EDDK-EIDW
Flight info
| Callsign | DLH1985 |
|---|---|
| Flight time | 1h 33m |
| Altitude | 38000 |
| Route | NVO3F NVO Y868 NAVAK DCT DENUT L610 KOPUL DCT SABER L980 LAM L179 UGBET Q60 OKSAW DCT TEWXI DCT LANON/N0332F240 L18 LIPGO |
| Aircraft | A20N/M-SDE2E3FGHIRWXY/LB1 |
Departure
| Time | 2026-05-04 03:03 |
|---|---|
| Airport | Cologne Bonn Airport (EDDK) |
Arrival
| Time | 2026-05-04 04:36 |
|---|---|
| Airport | Dublin Airport (EIDW) |
| Time | Latitude | Longitude | Altitude | Speed | Heading |
|---|---|---|---|---|---|
| 2026-05-04 02:32 | 50.88196 | 7.11901 | 230 ft | 0 kts | 215° |
| 2026-05-04 02:57 | 50.88196 | 7.11902 | 230 ft | 0 kts | 215° |
| 2026-05-04 02:57 | 50.88215 | 7.11923 | 230 ft | 4 kts | 216° |
| 2026-05-04 02:57 | 50.88237 | 7.11940 | 233 ft | 4 kts | 174° |
| 2026-05-04 02:58 | 50.88258 | 7.11924 | 231 ft | 2 kts | 126° |
| 2026-05-04 02:58 | 50.88262 | 7.11917 | 231 ft | 0 kts | 126° |
| 2026-05-04 03:00 | 50.88261 | 7.11919 | 230 ft | 2 kts | 126° |
| 2026-05-04 03:00 | 50.88244 | 7.11957 | 232 ft | 7 kts | 126° |
| 2026-05-04 03:00 | 50.88208 | 7.12035 | 230 ft | 11 kts | 126° |
| 2026-05-04 03:00 | 50.88155 | 7.12149 | 230 ft | 15 kts | 126° |
| 2026-05-04 03:01 | 50.88102 | 7.12296 | 230 ft | 14 kts | 98° |
| 2026-05-04 03:01 | 50.88049 | 7.12436 | 230 ft | 17 kts | 120° |
| 2026-05-04 03:01 | 50.87989 | 7.12609 | 230 ft | 19 kts | 107° |
| 2026-05-04 03:01 | 50.87997 | 7.12758 | 234 ft | 0 kts | 73° |
| 2026-05-04 03:02 | 50.88003 | 7.12790 | 235 ft | 10 kts | 75° |
| 2026-05-04 03:02 | 50.87975 | 7.13016 | 239 ft | 38 kts | 124° |
| 2026-05-04 03:02 | 50.87600 | 7.13558 | 247 ft | 107 kts | 137° |
| 2026-05-04 03:03 | 50.86930 | 7.14552 | 273 ft | 157 kts | 138° |
| 2026-05-04 03:03 | 50.86111 | 7.15681 | 891 ft | 154 kts | 139° |
| 2026-05-04 03:03 | 50.85304 | 7.16795 | 1637 ft | 154 kts | 141° |
| 2026-05-04 03:03 | 50.84483 | 7.17960 | 2185 ft | 167 kts | 142° |
| 2026-05-04 03:04 | 50.83555 | 7.19268 | 2576 ft | 189 kts | 141° |
| 2026-05-04 03:04 | 50.82527 | 7.20716 | 2982 ft | 215 kts | 141° |
| 2026-05-04 03:04 | 50.81337 | 7.22381 | 3601 ft | 236 kts | 144° |
| 2026-05-04 03:04 | 50.79893 | 7.23550 | 4244 ft | 235 kts | 169° |
| 2026-05-04 03:05 | 50.78273 | 7.23779 | 5264 ft | 231 kts | 187° |
| 2026-05-04 03:05 | 50.76783 | 7.23074 | 6572 ft | 221 kts | 213° |
| 2026-05-04 03:05 | 50.75694 | 7.21397 | 7687 ft | 222 kts | 239° |
| 2026-05-04 03:05 | 50.75109 | 7.19096 | 8673 ft | 234 kts | 256° |
| 2026-05-04 03:06 | 50.75044 | 7.16390 | 9356 ft | 260 kts | 272° |
| 2026-05-04 03:06 | 50.75368 | 7.13497 | 10240 ft | 273 kts | 279° |
| 2026-05-04 03:06 | 50.75832 | 7.10471 | 10853 ft | 296 kts | 280° |
| 2026-05-04 03:06 | 50.76336 | 7.07244 | 11317 ft | 319 kts | 280° |
| 2026-05-04 03:07 | 50.76858 | 7.03750 | 12126 ft | 328 kts | 280° |
| 2026-05-04 03:07 | 50.77363 | 7.00217 | 13125 ft | 332 kts | 279° |
| 2026-05-04 03:07 | 50.77863 | 6.96610 | 14098 ft | 336 kts | 279° |
| 2026-05-04 03:07 | 50.78358 | 6.92975 | 14962 ft | 341 kts | 279° |
| 2026-05-04 03:08 | 50.78856 | 6.89287 | 15813 ft | 345 kts | 279° |
| 2026-05-04 03:08 | 50.79351 | 6.85605 | 16655 ft | 349 kts | 278° |
| 2026-05-04 03:08 | 50.79859 | 6.81817 | 17515 ft | 354 kts | 278° |
| 2026-05-04 03:08 | 50.80370 | 6.77999 | 18339 ft | 358 kts | 278° |
| 2026-05-04 03:09 | 50.80889 | 6.74113 | 19087 ft | 362 kts | 278° |
| 2026-05-04 03:09 | 50.81412 | 6.70197 | 19847 ft | 364 kts | 278° |
| 2026-05-04 03:09 | 50.81958 | 6.66262 | 20598 ft | 369 kts | 279° |
| 2026-05-04 03:09 | 50.82575 | 6.62291 | 21343 ft | 373 kts | 279° |
| 2026-05-04 03:10 | 50.83206 | 6.58343 | 22065 ft | 376 kts | 279° |
| 2026-05-04 03:10 | 50.83852 | 6.54290 | 22686 ft | 383 kts | 279° |
| 2026-05-04 03:10 | 50.84500 | 6.50167 | 23400 ft | 386 kts | 279° |
| 2026-05-04 03:10 | 50.85144 | 6.46033 | 24061 ft | 388 kts | 279° |
| 2026-05-04 03:11 | 50.85783 | 6.41902 | 24743 ft | 389 kts | 279° |
| 2026-05-04 03:11 | 50.86424 | 6.37735 | 25399 ft | 390 kts | 278° |
| 2026-05-04 03:11 | 50.87064 | 6.33546 | 25997 ft | 392 kts | 278° |
| 2026-05-04 03:11 | 50.87706 | 6.29335 | 26610 ft | 393 kts | 278° |
| 2026-05-04 03:12 | 50.88347 | 6.25115 | 27211 ft | 395 kts | 278° |
| 2026-05-04 03:12 | 50.88991 | 6.20863 | 27779 ft | 397 kts | 278° |
| 2026-05-04 03:12 | 50.89627 | 6.16661 | 28327 ft | 398 kts | 278° |
| 2026-05-04 03:12 | 50.90273 | 6.12369 | 28859 ft | 400 kts | 278° |
| 2026-05-04 03:13 | 50.90921 | 6.08064 | 29396 ft | 402 kts | 278° |
| 2026-05-04 03:13 | 50.91568 | 6.03742 | 29853 ft | 404 kts | 278° |
| 2026-05-04 03:13 | 50.92218 | 5.99388 | 30267 ft | 407 kts | 278° |
| 2026-05-04 03:13 | 50.92865 | 5.95043 | 30618 ft | 411 kts | 278° |
| 2026-05-04 03:14 | 50.93526 | 5.90593 | 30968 ft | 414 kts | 278° |
| 2026-05-04 03:14 | 50.94187 | 5.86127 | 31380 ft | 416 kts | 278° |
| 2026-05-04 03:14 | 50.94849 | 5.81647 | 31835 ft | 417 kts | 278° |
| 2026-05-04 03:14 | 50.95511 | 5.77158 | 32294 ft | 417 kts | 278° |
| 2026-05-04 03:15 | 50.96162 | 5.72732 | 32742 ft | 418 kts | 278° |
| 2026-05-04 03:15 | 50.96821 | 5.68232 | 33186 ft | 418 kts | 278° |
| 2026-05-04 03:15 | 50.97477 | 5.63742 | 33733 ft | 416 kts | 278° |
| 2026-05-04 03:15 | 50.98127 | 5.59275 | 34212 ft | 414 kts | 278° |
| 2026-05-04 03:16 | 50.98774 | 5.54818 | 34527 ft | 416 kts | 278° |
| 2026-05-04 03:16 | 50.99422 | 5.50336 | 34860 ft | 417 kts | 278° |
| 2026-05-04 03:16 | 51.00072 | 5.45839 | 35163 ft | 417 kts | 278° |
| 2026-05-04 03:16 | 51.00720 | 5.41336 | 35482 ft | 418 kts | 278° |
| 2026-05-04 03:17 | 51.01360 | 5.36878 | 35786 ft | 419 kts | 278° |
| 2026-05-04 03:17 | 51.02007 | 5.32359 | 36090 ft | 420 kts | 278° |
| 2026-05-04 03:17 | 51.02656 | 5.27819 | 36385 ft | 420 kts | 277° |
| 2026-05-04 03:17 | 51.03303 | 5.23273 | 36686 ft | 421 kts | 277° |
| 2026-05-04 03:18 | 51.03948 | 5.18722 | 36967 ft | 422 kts | 277° |
| 2026-05-04 03:18 | 51.04587 | 5.14204 | 37145 ft | 425 kts | 277° |
| 2026-05-04 03:18 | 51.05235 | 5.09608 | 37416 ft | 426 kts | 277° |
| 2026-05-04 03:18 | 51.05665 | 5.06554 | 37589 ft | 426 kts | 277° |
| 2026-05-04 03:19 | 51.06312 | 5.01946 | 37847 ft | 427 kts | 277° |
| 2026-05-04 03:19 | 51.06960 | 4.97319 | 37948 ft | 428 kts | 277° |
| 2026-05-04 03:19 | 51.07812 | 4.91209 | 37943 ft | 426 kts | 277° |
| 2026-05-04 03:20 | 51.08876 | 4.83544 | 37946 ft | 426 kts | 277° |
| 2026-05-04 03:20 | 51.10146 | 4.74337 | 37946 ft | 426 kts | 277° |
| 2026-05-04 03:21 | 51.11418 | 4.65040 | 37954 ft | 430 kts | 277° |
| 2026-05-04 03:21 | 51.12680 | 4.55793 | 37965 ft | 429 kts | 277° |
| 2026-05-04 03:22 | 51.13937 | 4.46511 | 37949 ft | 427 kts | 277° |
| 2026-05-04 03:22 | 51.15180 | 4.37269 | 37948 ft | 426 kts | 277° |
| 2026-05-04 03:23 | 51.16408 | 4.28080 | 37944 ft | 426 kts | 277° |
| 2026-05-04 03:23 | 51.17636 | 4.18826 | 37955 ft | 429 kts | 277° |
| 2026-05-04 03:24 | 51.18868 | 4.09485 | 37954 ft | 429 kts | 277° |
| 2026-05-04 03:24 | 51.20083 | 4.00222 | 37942 ft | 429 kts | 277° |
| 2026-05-04 03:25 | 51.21300 | 3.90873 | 37939 ft | 429 kts | 276° |
| 2026-05-04 03:25 | 51.22502 | 3.81582 | 37931 ft | 429 kts | 276° |
| 2026-05-04 03:26 | 51.23700 | 3.72241 | 37937 ft | 429 kts | 277° |
| 2026-05-04 03:26 | 51.24889 | 3.62919 | 37938 ft | 429 kts | 277° |
| 2026-05-04 03:27 | 51.26068 | 3.53619 | 37939 ft | 429 kts | 276° |
| 2026-05-04 03:27 | 51.27251 | 3.44228 | 37938 ft | 429 kts | 276° |
| 2026-05-04 03:28 | 51.28414 | 3.34924 | 37942 ft | 429 kts | 276° |
| 2026-05-04 03:28 | 51.29579 | 3.25529 | 37925 ft | 431 kts | 276° |
| 2026-05-04 03:29 | 51.30742 | 3.16106 | 37927 ft | 431 kts | 276° |
| 2026-05-04 03:29 | 51.31889 | 3.06738 | 37931 ft | 431 kts | 276° |
| 2026-05-04 03:30 | 51.33028 | 2.97369 | 37934 ft | 432 kts | 276° |
| 2026-05-04 03:30 | 51.34168 | 2.87924 | 37938 ft | 432 kts | 276° |
| 2026-05-04 03:31 | 51.35302 | 2.78456 | 37932 ft | 433 kts | 276° |
| 2026-05-04 03:31 | 51.36428 | 2.68988 | 37933 ft | 433 kts | 276° |
| 2026-05-04 03:32 | 51.37545 | 2.59541 | 37940 ft | 434 kts | 276° |
| 2026-05-04 03:32 | 51.38657 | 2.50054 | 37945 ft | 434 kts | 276° |
| 2026-05-04 03:33 | 51.39765 | 2.40536 | 37943 ft | 435 kts | 276° |
| 2026-05-04 03:33 | 51.40867 | 2.30983 | 37940 ft | 436 kts | 277° |
| 2026-05-04 03:34 | 51.41960 | 2.21455 | 37943 ft | 436 kts | 277° |
| 2026-05-04 03:34 | 51.43038 | 2.12013 | 37944 ft | 436 kts | 277° |
| 2026-05-04 03:35 | 51.44122 | 2.02480 | 37959 ft | 436 kts | 276° |
| 2026-05-04 03:35 | 51.45160 | 1.92936 | 37949 ft | 436 kts | 277° |
| 2026-05-04 03:36 | 51.46322 | 1.83340 | 37943 ft | 437 kts | 278° |
| 2026-05-04 03:36 | 51.47457 | 1.73738 | 37948 ft | 437 kts | 277° |
| 2026-05-04 03:37 | 51.48555 | 1.64210 | 37951 ft | 437 kts | 277° |
| 2026-05-04 03:37 | 51.49652 | 1.54578 | 37951 ft | 437 kts | 277° |
| 2026-05-04 03:38 | 51.50740 | 1.44954 | 37965 ft | 437 kts | 277° |
| 2026-05-04 03:38 | 51.51815 | 1.35373 | 37957 ft | 438 kts | 277° |
| 2026-05-04 03:39 | 51.52885 | 1.25780 | 37957 ft | 438 kts | 278° |
| 2026-05-04 03:39 | 51.53711 | 1.21055 | 37956 ft | 441 kts | 289° |
| 2026-05-04 03:39 | 51.54977 | 1.16528 | 37952 ft | 443 kts | 291° |
| 2026-05-04 03:40 | 51.57516 | 1.07555 | 37961 ft | 443 kts | 291° |
| 2026-05-04 03:40 | 51.60062 | 0.98531 | 37963 ft | 443 kts | 291° |
| 2026-05-04 03:41 | 51.62607 | 0.89482 | 37957 ft | 443 kts | 292° |
| 2026-05-04 03:41 | 51.65135 | 0.80463 | 37959 ft | 443 kts | 291° |
| 2026-05-04 03:42 | 51.67253 | 0.71221 | 37960 ft | 440 kts | 280° |
| 2026-05-04 03:42 | 51.67899 | 0.61463 | 37956 ft | 436 kts | 266° |
| 2026-05-04 03:43 | 51.67297 | 0.51751 | 37955 ft | 435 kts | 262° |
| 2026-05-04 03:43 | 51.66606 | 0.42121 | 37949 ft | 435 kts | 262° |
| 2026-05-04 03:44 | 51.65897 | 0.32428 | 37958 ft | 436 kts | 261° |
| 2026-05-04 03:44 | 51.65172 | 0.22730 | 37961 ft | 436 kts | 261° |
| 2026-05-04 03:45 | 51.64433 | 0.13073 | 37965 ft | 436 kts | 260° |
| 2026-05-04 03:45 | 51.63412 | 0.03472 | 37966 ft | 436 kts | 258° |
| 2026-05-04 03:46 | 51.62349 | -0.06143 | 37978 ft | 437 kts | 261° |
| 2026-05-04 03:46 | 51.62020 | -0.15936 | 37993 ft | 439 kts | 270° |
| 2026-05-04 03:47 | 51.62553 | -0.25723 | 37994 ft | 441 kts | 274° |
| 2026-05-04 03:47 | 51.63161 | -0.35570 | 37973 ft | 441 kts | 274° |
| 2026-05-04 03:48 | 51.63747 | -0.45350 | 37972 ft | 441 kts | 273° |
| 2026-05-04 03:48 | 51.64330 | -0.55212 | 37971 ft | 442 kts | 273° |
| 2026-05-04 03:49 | 51.64902 | -0.65024 | 37967 ft | 442 kts | 273° |
| 2026-05-04 03:49 | 51.65468 | -0.74895 | 37970 ft | 442 kts | 273° |
| 2026-05-04 03:50 | 51.66028 | -0.84785 | 37969 ft | 442 kts | 273° |
| 2026-05-04 03:50 | 51.66575 | -0.94593 | 37970 ft | 442 kts | 273° |
| 2026-05-04 03:51 | 51.67119 | -1.04499 | 37964 ft | 442 kts | 273° |
| 2026-05-04 03:51 | 51.67649 | -1.14311 | 37964 ft | 442 kts | 273° |
| 2026-05-04 03:52 | 51.68174 | -1.24193 | 37963 ft | 442 kts | 273° |
| 2026-05-04 03:52 | 51.68691 | -1.34083 | 37961 ft | 442 kts | 273° |
| 2026-05-04 03:53 | 51.69201 | -1.43984 | 37963 ft | 442 kts | 273° |
| 2026-05-04 03:53 | 51.69698 | -1.53817 | 37956 ft | 443 kts | 273° |
| 2026-05-04 03:54 | 51.70368 | -1.63702 | 37957 ft | 444 kts | 279° |
| 2026-05-04 03:54 | 51.72070 | -1.73317 | 37955 ft | 447 kts | 289° |
| 2026-05-04 03:55 | 51.74716 | -1.82369 | 37958 ft | 449 kts | 295° |
| 2026-05-04 03:55 | 51.77514 | -1.91402 | 37963 ft | 449 kts | 294° |
| 2026-05-04 03:56 | 51.80306 | -2.00480 | 37974 ft | 450 kts | 295° |
| 2026-05-04 03:56 | 51.82977 | -2.09562 | 37977 ft | 450 kts | 292° |
| 2026-05-04 03:57 | 51.85501 | -2.18844 | 37975 ft | 450 kts | 292° |
| 2026-05-04 03:57 | 51.88040 | -2.28123 | 37974 ft | 450 kts | 292° |
| 2026-05-04 03:58 | 51.91838 | -2.41954 | 37977 ft | 449 kts | 292° |
| 2026-05-04 03:58 | 51.94356 | -2.51166 | 37962 ft | 450 kts | 292° |
| 2026-05-04 03:59 | 51.96898 | -2.60498 | 37967 ft | 450 kts | 292° |
| 2026-05-04 03:59 | 51.99427 | -2.69824 | 37968 ft | 450 kts | 292° |
| 2026-05-04 04:00 | 52.01929 | -2.79084 | 37970 ft | 450 kts | 292° |
| 2026-05-04 04:00 | 52.04443 | -2.88433 | 37972 ft | 451 kts | 292° |
| 2026-05-04 04:01 | 52.06934 | -2.97732 | 37968 ft | 452 kts | 292° |
| 2026-05-04 04:01 | 52.09430 | -3.07086 | 37972 ft | 452 kts | 292° |
| 2026-05-04 04:02 | 52.11942 | -3.16537 | 37975 ft | 453 kts | 292° |
| 2026-05-04 04:02 | 52.14427 | -3.25926 | 37985 ft | 453 kts | 292° |
| 2026-05-04 04:03 | 52.16921 | -3.35391 | 37989 ft | 454 kts | 292° |
| 2026-05-04 04:03 | 52.19404 | -3.44849 | 37991 ft | 454 kts | 292° |
| 2026-05-04 04:04 | 52.21870 | -3.54290 | 37989 ft | 454 kts | 292° |
| 2026-05-04 04:04 | 52.24341 | -3.63794 | 38000 ft | 454 kts | 292° |
| 2026-05-04 04:05 | 52.26771 | -3.73171 | 38001 ft | 454 kts | 292° |
| 2026-05-04 04:05 | 52.29211 | -3.82626 | 37997 ft | 454 kts | 292° |
| 2026-05-04 04:06 | 52.31249 | -3.90549 | 37993 ft | 454 kts | 292° |
| 2026-05-04 04:06 | 52.33690 | -4.00080 | 37986 ft | 453 kts | 292° |
| 2026-05-04 04:07 | 52.36116 | -4.09594 | 37979 ft | 453 kts | 292° |
| 2026-05-04 04:07 | 52.38523 | -4.19073 | 37744 ft | 449 kts | 293° |
| 2026-05-04 04:08 | 52.39721 | -4.23806 | 37175 ft | 448 kts | 293° |
| 2026-05-04 04:08 | 52.40914 | -4.28533 | 36439 ft | 449 kts | 293° |
| 2026-05-04 04:08 | 52.42178 | -4.33224 | 35712 ft | 449 kts | 298° |
| 2026-05-04 04:08 | 52.43767 | -4.37627 | 34986 ft | 448 kts | 306° |
| 2026-05-04 04:09 | 52.45638 | -4.41605 | 34315 ft | 445 kts | 313° |
| 2026-05-04 04:09 | 52.47745 | -4.45323 | 33562 ft | 443 kts | 315° |
| 2026-05-04 04:09 | 52.49856 | -4.49014 | 32708 ft | 444 kts | 316° |
| 2026-05-04 04:09 | 52.51971 | -4.52732 | 31789 ft | 446 kts | 317° |
| 2026-05-04 04:10 | 52.54088 | -4.56462 | 30946 ft | 447 kts | 317° |
| 2026-05-04 04:10 | 52.56207 | -4.60193 | 30152 ft | 449 kts | 318° |
| 2026-05-04 04:10 | 52.58320 | -4.63915 | 29260 ft | 448 kts | 317° |
| 2026-05-04 04:10 | 52.60440 | -4.67648 | 28444 ft | 444 kts | 317° |
| 2026-05-04 04:11 | 52.62543 | -4.71358 | 27677 ft | 440 kts | 317° |
| 2026-05-04 04:11 | 52.64621 | -4.75027 | 26936 ft | 436 kts | 317° |
| 2026-05-04 04:11 | 52.66683 | -4.78670 | 26223 ft | 431 kts | 316° |
| 2026-05-04 04:11 | 52.68694 | -4.82235 | 25534 ft | 427 kts | 317° |
| 2026-05-04 04:12 | 52.70710 | -4.85807 | 24870 ft | 422 kts | 316° |
| 2026-05-04 04:12 | 52.72707 | -4.89348 | 24240 ft | 418 kts | 316° |
| 2026-05-04 04:12 | 52.74680 | -4.92853 | 23625 ft | 413 kts | 315° |
| 2026-05-04 04:12 | 52.76603 | -4.96275 | 22925 ft | 409 kts | 315° |
| 2026-05-04 04:13 | 52.78512 | -4.99678 | 22244 ft | 404 kts | 315° |
| 2026-05-04 04:13 | 52.80418 | -5.03081 | 21578 ft | 400 kts | 315° |
| 2026-05-04 04:13 | 52.82294 | -5.06435 | 20934 ft | 395 kts | 315° |
| 2026-05-04 04:13 | 52.84158 | -5.09774 | 20337 ft | 390 kts | 315° |
| 2026-05-04 04:14 | 52.85966 | -5.13019 | 19770 ft | 385 kts | 315° |
| 2026-05-04 04:14 | 52.87781 | -5.16280 | 19231 ft | 385 kts | 315° |
| 2026-05-04 04:14 | 52.89593 | -5.19540 | 18740 ft | 382 kts | 315° |
| 2026-05-04 04:14 | 52.91383 | -5.22763 | 18257 ft | 377 kts | 314° |
| 2026-05-04 04:15 | 52.93156 | -5.25962 | 17713 ft | 376 kts | 314° |
| 2026-05-04 04:15 | 52.94892 | -5.29101 | 17186 ft | 371 kts | 315° |
| 2026-05-04 04:15 | 52.96635 | -5.32256 | 16659 ft | 369 kts | 314° |
| 2026-05-04 04:15 | 52.98356 | -5.35372 | 16143 ft | 365 kts | 314° |
| 2026-05-04 04:16 | 53.00076 | -5.38491 | 15631 ft | 362 kts | 315° |
| 2026-05-04 04:16 | 53.01772 | -5.41575 | 15108 ft | 359 kts | 315° |
| 2026-05-04 04:16 | 53.03428 | -5.44583 | 14592 ft | 356 kts | 314° |
| 2026-05-04 04:16 | 53.05069 | -5.47642 | 14044 ft | 353 kts | 311° |
| 2026-05-04 04:17 | 53.06457 | -5.51011 | 13475 ft | 353 kts | 301° |
| 2026-05-04 04:17 | 53.07502 | -5.54673 | 12863 ft | 352 kts | 293° |
| 2026-05-04 04:17 | 53.08394 | -5.58472 | 12352 ft | 346 kts | 293° |
| 2026-05-04 04:17 | 53.09291 | -5.62176 | 11805 ft | 342 kts | 293° |
| 2026-05-04 04:18 | 53.10166 | -5.65784 | 11262 ft | 338 kts | 293° |
| 2026-05-04 04:18 | 53.11039 | -5.69412 | 10725 ft | 334 kts | 293° |
| 2026-05-04 04:18 | 53.11893 | -5.72987 | 10281 ft | 327 kts | 293° |
| 2026-05-04 04:18 | 53.12699 | -5.76387 | 10074 ft | 305 kts | 293° |
| 2026-05-04 04:19 | 53.13455 | -5.79575 | 9782 ft | 288 kts | 292° |
| 2026-05-04 04:19 | 53.14191 | -5.82602 | 9396 ft | 284 kts | 294° |
| 2026-05-04 04:19 | 53.14972 | -5.85612 | 8993 ft | 280 kts | 295° |
| 2026-05-04 04:19 | 53.15773 | -5.88601 | 8436 ft | 283 kts | 296° |
| 2026-05-04 04:20 | 53.16562 | -5.91551 | 8160 ft | 276 kts | 295° |
| 2026-05-04 04:20 | 53.17344 | -5.94524 | 8037 ft | 281 kts | 295° |
| 2026-05-04 04:20 | 53.18112 | -5.97472 | 7913 ft | 279 kts | 295° |
| 2026-05-04 04:20 | 53.18873 | -6.00453 | 7786 ft | 279 kts | 295° |
| 2026-05-04 04:21 | 53.19637 | -6.03433 | 7658 ft | 278 kts | 296° |
| 2026-05-04 04:21 | 53.20409 | -6.06357 | 7538 ft | 277 kts | 295° |
| 2026-05-04 04:21 | 53.21180 | -6.09315 | 7415 ft | 278 kts | 295° |
| 2026-05-04 04:21 | 53.21939 | -6.12270 | 7288 ft | 277 kts | 296° |
| 2026-05-04 04:22 | 53.22702 | -6.15241 | 7158 ft | 277 kts | 295° |
| 2026-05-04 04:22 | 53.23459 | -6.18177 | 7050 ft | 274 kts | 292° |
| 2026-05-04 04:22 | 53.23754 | -6.21282 | 7042 ft | 278 kts | 268° |
| 2026-05-04 04:22 | 53.23571 | -6.24521 | 7044 ft | 280 kts | 265° |
| 2026-05-04 04:23 | 53.23355 | -6.27708 | 7043 ft | 278 kts | 265° |
| 2026-05-04 04:23 | 53.23141 | -6.30799 | 7042 ft | 256 kts | 265° |
| 2026-05-04 04:23 | 53.22943 | -6.33667 | 6879 ft | 245 kts | 265° |
| 2026-05-04 04:23 | 53.22754 | -6.36485 | 6485 ft | 244 kts | 265° |
| 2026-05-04 04:24 | 53.22726 | -6.39298 | 6147 ft | 238 kts | 278° |
| 2026-05-04 04:24 | 53.22921 | -6.42086 | 6056 ft | 243 kts | 279° |
| 2026-05-04 04:24 | 53.23117 | -6.44832 | 6051 ft | 241 kts | 279° |
| 2026-05-04 04:24 | 53.23316 | -6.47633 | 6051 ft | 242 kts | 279° |
| 2026-05-04 04:25 | 53.23511 | -6.50430 | 6046 ft | 242 kts | 279° |
| 2026-05-04 04:25 | 53.23699 | -6.53167 | 5928 ft | 239 kts | 279° |
| 2026-05-04 04:25 | 53.23880 | -6.55817 | 5655 ft | 239 kts | 279° |
| 2026-05-04 04:25 | 53.24069 | -6.58579 | 5502 ft | 238 kts | 279° |
| 2026-05-04 04:26 | 53.24256 | -6.61319 | 5189 ft | 237 kts | 279° |
| 2026-05-04 04:26 | 53.24448 | -6.63974 | 5072 ft | 224 kts | 284° |
| 2026-05-04 04:26 | 53.25138 | -6.66282 | 5069 ft | 223 kts | 317° |
| 2026-05-04 04:26 | 53.26429 | -6.67588 | 5071 ft | 217 kts | 347° |
| 2026-05-04 04:27 | 53.27923 | -6.67924 | 5070 ft | 216 kts | 355° |
| 2026-05-04 04:27 | 53.29376 | -6.68185 | 5067 ft | 206 kts | 355° |
| 2026-05-04 04:27 | 53.30798 | -6.68448 | 5073 ft | 206 kts | 355° |
| 2026-05-04 04:27 | 53.32221 | -6.68720 | 5071 ft | 205 kts | 355° |
| 2026-05-04 04:28 | 53.33646 | -6.68993 | 5040 ft | 206 kts | 354° |
| 2026-05-04 04:28 | 53.35069 | -6.69268 | 4924 ft | 205 kts | 354° |
| 2026-05-04 04:28 | 53.36489 | -6.69512 | 4799 ft | 205 kts | 359° |
| 2026-05-04 04:28 | 53.37880 | -6.69372 | 4677 ft | 202 kts | 7° |
| 2026-05-04 04:29 | 53.39278 | -6.69141 | 4550 ft | 201 kts | 7° |
| 2026-05-04 04:29 | 53.40680 | -6.68922 | 4395 ft | 202 kts | 6° |
| 2026-05-04 04:29 | 53.42067 | -6.68709 | 4146 ft | 199 kts | 7° |
| 2026-05-04 04:29 | 53.43453 | -6.68493 | 4067 ft | 197 kts | 9° |
| 2026-05-04 04:30 | 53.44662 | -6.67713 | 3966 ft | 184 kts | 40° |
| 2026-05-04 04:30 | 53.45378 | -6.66037 | 3886 ft | 175 kts | 69° |
| 2026-05-04 04:30 | 53.45601 | -6.64046 | 3806 ft | 179 kts | 85° |
| 2026-05-04 04:30 | 53.45572 | -6.61945 | 3714 ft | 175 kts | 91° |
| 2026-05-04 04:31 | 53.45459 | -6.59890 | 3636 ft | 177 kts | 92° |
| 2026-05-04 04:31 | 53.45347 | -6.57835 | 3556 ft | 178 kts | 92° |
| 2026-05-04 04:31 | 53.45233 | -6.55776 | 3465 ft | 178 kts | 92° |
| 2026-05-04 04:31 | 53.45122 | -6.53738 | 3276 ft | 176 kts | 92° |
| 2026-05-04 04:32 | 53.45012 | -6.51730 | 3071 ft | 175 kts | 92° |
| 2026-05-04 04:32 | 53.44901 | -6.49692 | 2842 ft | 173 kts | 92° |
| 2026-05-04 04:32 | 53.44795 | -6.47769 | 2637 ft | 158 kts | 92° |
| 2026-05-04 04:32 | 53.44699 | -6.46037 | 2421 ft | 145 kts | 92° |
| 2026-05-04 04:33 | 53.44611 | -6.44420 | 2218 ft | 134 kts | 92° |
| 2026-05-04 04:33 | 53.44528 | -6.42905 | 2064 ft | 127 kts | 91° |
| 2026-05-04 04:33 | 53.44450 | -6.41462 | 1884 ft | 124 kts | 91° |
| 2026-05-04 04:33 | 53.44371 | -6.40026 | 1714 ft | 123 kts | 91° |
| 2026-05-04 04:34 | 53.44294 | -6.38610 | 1542 ft | 121 kts | 91° |
| 2026-05-04 04:34 | 53.44217 | -6.37210 | 1376 ft | 122 kts | 91° |
| 2026-05-04 04:34 | 53.44140 | -6.35802 | 1214 ft | 122 kts | 91° |
| 2026-05-04 04:34 | 53.44060 | -6.34378 | 1069 ft | 122 kts | 92° |
| 2026-05-04 04:35 | 53.43980 | -6.32955 | 848 ft | 123 kts | 90° |
| 2026-05-04 04:35 | 53.43914 | -6.31529 | 697 ft | 122 kts | 92° |
| 2026-05-04 04:35 | 53.43832 | -6.30104 | 543 ft | 122 kts | 92° |
| 2026-05-04 04:35 | 53.43750 | -6.28705 | 359 ft | 122 kts | 92° |
| 2026-05-04 04:36 | 53.43681 | -6.27314 | 232 ft | 114 kts | 92° |
| 2026-05-04 04:36 | 53.43624 | -6.26287 | 228 ft | 65 kts | 97° |
| 2026-05-04 04:36 | 53.43574 | -6.25814 | 225 ft | 26 kts | 139° |
| 2026-05-04 04:36 | 53.43442 | -6.25709 | 225 ft | 0 kts | 155° |
| 2026-05-04 04:37 | 53.43436 | -6.25704 | 225 ft | 4 kts | 155° |
| 2026-05-04 04:38 | 53.43394 | -6.25673 | 224 ft | 9 kts | 157° |
| 2026-05-04 04:38 | 53.43317 | -6.25620 | 225 ft | 15 kts | 158° |
| 2026-05-04 04:38 | 53.43209 | -6.25557 | 225 ft | 18 kts | 154° |
| 2026-05-04 04:38 | 53.43077 | -6.25463 | 225 ft | 22 kts | 156° |
| 2026-05-04 04:39 | 53.42935 | -6.25353 | 226 ft | 22 kts | 148° |
| 2026-05-04 04:39 | 53.42807 | -6.25236 | 226 ft | 19 kts | 129° |
| 2026-05-04 04:39 | 53.42766 | -6.25023 | 225 ft | 20 kts | 139° |
| 2026-05-04 04:39 | 53.42658 | -6.24914 | 225 ft | 19 kts | 147° |
| 2026-05-04 04:40 | 53.42525 | -6.24814 | 226 ft | 21 kts | 157° |
| 2026-05-04 04:40 | 53.42417 | -6.24678 | 225 ft | 17 kts | 94° |
| 2026-05-04 04:40 | 53.42457 | -6.24522 | 225 ft | 16 kts | 60° |
| 2026-05-04 04:40 | 53.42514 | -6.24422 | 225 ft | 5 kts | 36° |
| 2026-05-04 04:41 | 53.42551 | -6.24361 | 225 ft | 10 kts | 62° |
| 2026-05-04 04:41 | 53.42529 | -6.24260 | 225 ft | 9 kts | 134° |
| 2026-05-04 04:41 | 53.42519 | -6.24243 | 225 ft | 0 kts | 135° |
| 2026-05-04 04:41 | 53.42518 | -6.24241 | 225 ft | 0 kts | 135° |